Latest Coastal Weather Observations for Robe Airport

IDV60701

Issued at 6:11 pm EST Thursday 2 July 2015 (issued every 10 minutes, with the page automatically refreshed every 10 minutes)

About coastal observations | Map of coastal stations | Coastal observations for VIC | Marine services | Other Formats
Station Details ID: 026105 Name: ROBE AIRFIELD Lat: -37.18 Lon: 139.81 Height: 3.0 m
Data from the previous 72 hours. | See also: Recent months at Robe Airport
Date/Time
EST
Temp

°C
Wind Pressure Rain
since 9am
mm
Weather Cloud Vis
km
Sea
Height
m
Swell
Dir
 
Speed
knots
Gust
knots
hPa Trend Height
m
Period
s
Dir
02/06:00pm 9.6 SSE 3 4 1029.8 - 0.0 - - - - - - -
02/05:30pm 10.0 S 4 6 1029.6 - 0.0 - - - - - - -
02/05:00pm 9.4 S 4 6 1029.4 - 0.0 - - - - - - -
02/04:30pm 10.4 SSE 5 6 1029.2 - 0.0 - - - - - - -
02/04:00pm 11.1 S 7 11 1028.9 - 0.0 - - - - - - -
02/03:30pm 12.5 S 9 14 1028.6 - 0.0 - - - - - - -
02/03:00pm 12.0 S 11 15 1028.6 - 0.0 - - - - - - -
02/02:30pm 12.1 S 10 14 1028.7 - 0.0 - - - - - - -
02/02:00pm 12.6 S 12 16 1028.6 - 0.0 - - - - - - -
02/01:30pm 13.1 S 13 17 1028.4 - 0.0 - - - - - - -
02/01:00pm 12.4 SSW 12 18 1028.2 - 0.0 - - - - - - -
02/12:30pm 12.7 S 12 17 1028.4 - 0.0 - - - - - - -
02/12:00pm 12.6 SSW 14 19 1028.5 - 0.0 - - - - - - -
02/11:30am 12.8 SSW 14 19 1028.4 - 0.0 - - - - - - -
02/11:00am 12.6 S 15 21 1028.1 - 0.0 - - - - - - -
02/10:30am 13.0 SSW 13 18 1027.7 - 0.0 - - - - - - -
02/10:00am 12.6 SSW 16 22 1027.2 - 0.0 - - - - - - -
02/09:30am 12.0 SSW 15 24 1027.0 - 1.8 - - - - - - -
02/09:00am 12.1 SSW 13 19 1026.8 - 1.8 - - - - - - -
02/08:38am 11.6 SSW 15 25 1026.5 - 1.8 - - - - - - -
02/08:30am 11.6 SSW 16 23 1026.5 - 1.8 - - - - - - -
02/08:00am 11.9 SW 13 18 1026.2 - 1.8 - - - - - - -
02/07:30am 12.2 SW 15 22 1026.0 - 1.8 - - - - - - -
02/07:00am 11.7 SW 13 21 1025.7 - 1.8 - - - - - - -
02/06:30am 11.8 SW 17 25 1025.2 - 1.8 - - - - - - -
02/06:16am 12.2 SW 15 27 1025.0 - 1.8 - - - - - - -
02/06:00am 12.6 SW 14 24 1024.7 - 1.8 - - - - - - -
02/05:30am 12.3 SW 14 18 1024.5 - 1.8 - - - - - - -
02/05:00am 12.1 SW 12 18 1024.1 - 1.8 - - - - - - -
02/04:30am 11.9 SW 15 25 1023.9 - 1.8 - - - - - - -
02/04:00am 12.2 SW 15 24 1023.7 - 1.8 - - - - - - -
02/03:30am 12.7 SW 14 24 1023.6 - 1.8 Recent precip. - - - - - -
02/03:00am 12.6 SW 12 19 1023.5 - 1.8 - - - - - - -
02/02:30am 13.1 SW 12 18 1023.3 - 1.6 - - - - - - -
02/02:00am 13.3 SW 8 14 1023.2 - 1.6 - - - - - - -
02/01:30am 12.9 SW 5 8 1022.9 - 1.4 - - - - - - -
02/01:00am 14.2 W 11 20 1022.8 - 1.0 - - - - - - -
02/12:30am 14.5 W 12 19 1022.9 - 1.0 - - - - - - -
02/12:00am 14.6 W 10 16 1023.0 - 1.0 - - - - - - -
 
Date/Time
EST
Temp

°C
Wind Pressure Rain
since 9am
mm
Weather Cloud Vis
km
Sea
Height
m
Swell
Dir
 
Speed
knots
Gust
knots
hPa Trend Height
m
Period
s
Dir
01/11:30pm 14.5 WNW 11 17 1023.1 - 1.0 - - - - - - -
01/11:00pm 14.2 WNW 11 16 1023.1 - 1.0 - - - - - - -
01/10:30pm 14.4 WNW 12 18 1023.2 - 1.0 - - - - - - -
01/10:00pm 14.0 WNW 11 18 1023.7 - 1.0 - - - - - - -
01/09:30pm 14.0 WNW 15 22 1023.9 - 1.0 - - - - - - -
01/09:00pm 13.9 WNW 14 22 1023.9 - 1.0 - - - - - - -
01/08:30pm 14.0 WNW 15 23 1024.0 - 1.0 - - - - - - -
01/08:00pm 13.9 NW 13 19 1023.8 - 1.0 - - - - - - -
01/07:30pm 13.8 WNW 14 21 1023.7 - 1.0 - - - - - - -
01/07:00pm 13.5 WNW 14 19 1023.6 - 1.0 - - - - - - -
01/06:30pm 13.3 WNW 11 18 1023.7 - 1.0 - - - - - - -
01/06:00pm 13.8 WNW 14 22 1023.7 - 1.0 - - - - - - -
01/05:30pm 13.7 NW 15 23 1023.8 - 1.0 - - - - - - -
01/05:00pm 13.8 WNW 15 24 1024.0 - 1.0 - - - - - - -
01/04:37pm 14.0 WNW 15 26 1024.0 - 1.0 - - - - - - -
01/04:30pm 13.9 WNW 15 20 1024.0 - 1.0 - - - - - - -
01/04:00pm 13.7 NW 17 23 1024.2 - 1.0 - - - - - - -
01/03:30pm 13.2 NW 13 21 1024.1 - 1.0 Recent precip. - - - - - -
01/03:00pm 13.4 WNW 14 21 1024.2 - 0.8 - - - - - - -
01/02:30pm 12.6 NW 16 24 1024.7 - 0.8 - - - - - - -
01/02:12pm 12.9 NW 17 28 1025.0 - 0.8 - - - - - - -
01/02:00pm 13.3 NW 15 20 1025.1 - 0.8 - - - - - - -
01/01:53pm 13.5 NW 16 26 1025.1 - 0.8 - - - - - - -
01/01:30pm 14.1 NW 17 23 1025.3 - 0.8 - - - - - - -
01/01:00pm 13.5 NW 13 20 1025.8 - 0.8 - - - - - - -
01/12:30pm 12.9 NW 9 13 1026.2 - 0.8 Recent precip. - - - - - -
01/12:00pm 13.0 NW 12 19 1026.9 - 0.2 - - - - - - -
01/11:30am 12.8 WNW 14 23 1027.1 - 0.0 - - - - - - -
01/11:00am 14.4 NW 14 19 1027.3 - 0.0 - - - - - - -
01/10:30am 14.0 NW 12 18 1027.5 - 0.0 - - - - - - -
01/10:00am 14.3 NW 10 14 1027.4 - 0.0 - - - - - - -
01/09:30am 13.7 NW 9 12 1027.3 - 3.4 - - - - - - -
01/09:00am 13.1 NW 9 13 1027.5 - 3.4 - - - - - - -
01/08:30am 12.4 WNW 8 11 1027.5 - 3.4 - - - - - - -
01/08:00am 12.2 NW 8 13 1027.5 - 3.4 - - - - - - -
01/07:30am 11.4 WNW 8 10 1027.5 - 3.4 - - - - - - -
01/07:00am 11.5 NW 8 12 1027.3 - 3.4 - - - - - - -
01/06:30am 10.9 NW 8 11 1027.3 - 3.4 - - - - - - -
01/06:00am 10.4 NW 7 9 1027.3 - 3.4 - - - - - - -
01/05:30am 10.7 NW 9 13 1027.3 - 3.4 - - - - - - -
01/05:00am 8.8 N 4 6 1027.5 - 3.4 - - - - - - -
01/04:30am 9.8 NNW 5 7 1027.7 - 3.4 - - - - - - -
01/04:00am 9.6 WNW 2 4 1028.0 - 3.0 - - - - - - -
01/03:30am 8.2 N 4 5 1028.2 - 1.4 Recent precip. - - - - - -
01/03:00am 6.5 N 4 5 1028.2 - 1.2 - - - - - - -
01/02:30am 5.0 N 4 5 1028.4 - 1.2 - - - - - - -
01/02:00am 4.5 N 2 2 1028.1 - 1.2 - - - - - - -
01/01:30am 5.8 N 2 3 1028.4 - 1.2 - - - - - - -
01/01:00am 6.0 N 1 3 1028.6 - 1.2 - - - - - - -
01/12:30am 6.4 N 3 3 1028.8 - 1.2 - - - - - - -
01/12:00am 5.3 N 4 4 1029.1 - 1.2 - - - - - - -
 
Date/Time
EST
Temp

°C
Wind Pressure Rain
since 9am
mm
Weather Cloud Vis
km
Sea
Height
m
Swell
Dir
 
Speed
knots
Gust
knots
hPa Trend Height
m
Period
s
Dir
30/11:30pm 6.8 N 3 4 1029.5 - 1.2 - - - - - - -
30/11:00pm 6.0 NNE 4 5 1029.6 - 1.2 - - - - - - -
30/10:30pm 5.9 S 3 3 1029.7 - 1.2 - - - - - - -
30/10:00pm 6.1 S 2 3 1029.9 - 1.2 - - - - - - -
30/09:30pm 5.9 S 2 3 1029.8 - 1.2 - - - - - - -
30/09:00pm 6.6 S 2 2 1029.8 - 1.2 - - - - - - -
30/08:30pm 6.6 S 1 2 1029.8 - 1.2 - - - - - - -
30/08:00pm 7.2 S 2 3 1029.9 - 1.2 - - - - - - -
30/07:30pm 9.1 CALM 0 0 1029.7 - 1.2 - - - - - - -
30/07:00pm 9.5 CALM 0 1 1029.5 - 1.2 - - - - - - -
30/06:30pm 9.7 S 2 2 1029.3 - 1.2 - - - - - - -
30/06:00pm 10.5 S 2 3 1029.0 - 1.2 - - - - - - -
30/05:30pm 10.7 N 3 4 1028.8 - 1.2 - - - - - - -
30/05:00pm 10.9 NNW 4 5 1028.7 - 1.2 - - - - - - -
30/04:30pm 11.0 W 4 6 1028.9 - 1.2 - - - - - - -
30/04:00pm 12.3 NNW 9 12 1028.6 - 0.0 - - - - - - -
30/03:30pm 13.5 NW 9 12 1028.6 - 0.0 - - - - - - -
30/03:00pm 13.8 NW 9 12 1028.5 - 0.0 - - - - - - -
30/02:30pm 13.4 NNW 10 14 1028.5 - 0.0 - - - - - - -
30/02:00pm 14.1 NNW 9 13 1028.7 - 0.0 - - - - - - -
30/01:30pm 13.5 NNW 10 13 1029.0 - 0.0 - - - - - - -
30/01:00pm 13.8 NW 9 12 1029.3 - 0.0 - - - - - - -
30/12:30pm 13.2 NNW 9 12 1029.5 - 0.0 - - - - - - -
30/12:00pm 13.1 NNW 8 11 1030.0 - 0.0 - - - - - - -
30/11:30am 12.6 NNW 10 12 1030.4 - 0.0 - - - - - - -
30/11:00am 12.9 NNW 9 11 1030.5 - 0.0 - - - - - - -
30/10:30am 12.4 NNW 6 8 1030.5 - 0.0 - - - - - - -
30/10:00am 11.8 NNW 6 8 1030.4 - 0.0 - - - - - - -
30/09:30am 10.2 NNW 5 7 1030.3 - 0.0 - - - - - - -
30/09:00am 8.2 N 4 6 1030.0 - 0.0 - - - - - - -
30/08:30am 6.5 N 4 5 1029.9 - 0.0 - - - - - - -
30/08:00am 7.3 NNE 3 5 1029.8 - 0.0 - - - - - - -
30/07:30am 6.5 NNE 3 3 1029.6 - 0.0 - - - - - - -
30/07:00am 6.5 NNE 3 4 1029.5 - 0.0 - - - - - - -
30/06:30am 6.2 NNE 3 4 1029.3 - 0.0 - - - - - - -
30/06:00am 6.0 NNE 2 3 1029.2 - 0.0 - - - - - - -
30/05:30am 5.1 NNE 3 4 1028.9 - 0.0 - - - - - - -
30/05:00am 4.8 NNE 2 3 1028.9 - 0.0 - - - - - - -
30/04:30am 4.4 NNE 2 3 1028.9 - 0.0 - - - - - - -
30/04:00am 3.2 NNE 2 3 1029.1 - 0.0 - - - - - - -
30/03:30am 5.2 NNE 3 4 1029.3 - 0.0 - - - - - - -
30/03:00am 4.8 NNE 3 4 1029.3 - 0.0 - - - - - - -
30/02:30am 4.3 CALM 0 0 1029.5 - 0.0 - - - - - - -
30/02:00am 5.5 CALM 0 0 1029.6 - 0.0 - - - - - - -
30/01:30am 5.8 CALM 0 0 1029.7 - 0.0 - - - - - - -
30/01:00am 6.7 CALM 0 1 1030.1 - 0.0 - - - - - - -
30/12:30am 6.8 CALM 0 1 1030.3 - 0.0 - - - - - - -
30/12:00am 6.1 NNE 3 4 1030.4 - 0.0 - - - - - - -
 
Date/Time
EST
Temp

°C
Wind Pressure Rain
since 9am
mm
Weather Cloud Vis
km
Sea
Height
m
Swell
Dir
 
Speed
knots
Gust
knots
hPa Trend Height
m
Period
s
Dir
29/11:30pm 7.2 NNE 5 7 1030.6 - 0.0 - - - - - - -
29/11:00pm 7.0 NE 3 4 1030.5 - 0.0 - - - - - - -
29/10:30pm 6.6 NE 3 5 1030.6 - 0.0 - - - - - - -
29/10:00pm 7.8 NE 3 4 1030.8 - 0.0 - - - - - - -
29/09:30pm 7.3 ENE 3 3 1030.9 - 0.0 - - - - - - -
29/09:00pm 7.3 SSW 3 4 1031.0 - 0.0 - - - - - - -
29/08:30pm 7.8 CALM 0 0 1031.0 - 0.0 - - - - - - -
29/08:00pm 8.1 CALM 0 0 1030.9 - 0.0 - - - - - - -
29/07:30pm 8.6 CALM 0 0 1030.8 - 0.0 - - - - - - -
29/07:00pm 8.5 CALM 0 0 1030.7 - 0.0 - - - - - - -

Other Formats:

Comma delimited format used in spreadsheet applications
http://www.bom.gov.au/fwo/IDV60701/IDV60701.95816.axf

JavaScript Object Notation format (JSON) in row-major order
http://www.bom.gov.au/fwo/IDV60701/IDV60701.95816.json